sensor_id;sensor_type;location;lat;lon;timestamp;P1;durP1;ratioP1;P2;durP2;ratioP2
60308;SDS011;50313;52.894;6.492;2023-07-13T02:17:47;4.95;;;1.15;;
60308;SDS011;50313;52.894;6.492;2023-07-13T04:42:28;4.10;;;1.80;;
60308;SDS011;50313;52.894;6.492;2023-07-13T04:45:37;1.45;;;1.10;;
60308;SDS011;50313;52.894;6.492;2023-07-13T04:48:32;5.95;;;2.17;;
60308;SDS011;50313;52.894;6.492;2023-07-13T04:55:12;12.98;;;1.65;;
60308;SDS011;50313;52.894;6.492;2023-07-13T04:58:42;8.32;;;1.52;;
60308;SDS011;50313;52.894;6.492;2023-07-13T05:01:34;2.08;;;1.42;;
60308;SDS011;50313;52.894;6.492;2023-07-13T05:08:11;8.32;;;1.10;;
60308;SDS011;50313;52.894;6.492;2023-07-13T05:11:47;6.10;;;1.42;;
60308;SDS011;50313;52.894;6.492;2023-07-13T05:14:54;2.85;;;1.15;;
60308;SDS011;50313;52.894;6.492;2023-07-13T05:18:13;10.13;;;2.05;;
60308;SDS011;50313;52.894;6.492;2023-07-13T05:23:57;5.40;;;1.48;;
60308;SDS011;50313;52.894;6.492;2023-07-13T05:29:23;3.42;;;1.45;;
60308;SDS011;50313;52.894;6.492;2023-07-13T05:32:15;7.63;;;1.48;;
60308;SDS011;50313;52.894;6.492;2023-07-13T05:35:06;15.27;;;1.60;;
60308;SDS011;50313;52.894;6.492;2023-07-13T05:38:32;8.13;;;1.50;;
60308;SDS011;50313;52.894;6.492;2023-07-13T05:41:26;5.53;;;1.15;;
60308;SDS011;50313;52.894;6.492;2023-07-13T05:44:14;3.85;;;1.98;;
60308;SDS011;50313;52.894;6.492;2023-07-13T05:53:45;3.53;;;1.48;;
60308;SDS011;50313;52.894;6.492;2023-07-13T05:56:39;10.70;;;1.60;;
60308;SDS011;50313;52.894;6.492;2023-07-13T06:02:47;5.50;;;1.30;;
60308;SDS011;50313;52.894;6.492;2023-07-13T06:05:52;10.23;;;2.00;;
60308;SDS011;50313;52.894;6.492;2023-07-13T06:11:50;10.20;;;1.42;;
60308;SDS011;50313;52.894;6.492;2023-07-13T06:14:57;10.32;;;2.08;;
60308;SDS011;50313;52.894;6.492;2023-07-13T06:21:05;5.78;;;1.77;;
60308;SDS011;50313;52.894;6.492;2023-07-13T06:23:54;11.40;;;1.88;;
60308;SDS011;50313;52.894;6.492;2023-07-13T06:26:50;4.65;;;1.92;;
60308;SDS011;50313;52.894;6.492;2023-07-13T06:34:09;9.65;;;1.85;;
60308;SDS011;50313;52.894;6.492;2023-07-13T06:36:56;2.63;;;1.77;;
60308;SDS011;50313;52.894;6.492;2023-07-13T06:39:37;2.20;;;1.17;;
60308;SDS011;50313;52.894;6.492;2023-07-13T06:42:17;4.88;;;1.80;;
60308;SDS011;50313;52.894;6.492;2023-07-13T06:55:37;2.80;;;1.23;;
60308;SDS011;50313;52.894;6.492;2023-07-13T07:05:01;5.47;;;2.35;;
60308;SDS011;50313;52.894;6.492;2023-07-13T07:08:05;3.40;;;1.33;;
60308;SDS011;50313;52.894;6.492;2023-07-13T07:11:00;10.65;;;2.17;;
60308;SDS011;50313;52.894;6.492;2023-07-13T07:14:15;8.48;;;2.45;;
60308;SDS011;50313;52.894;6.492;2023-07-13T07:17:24;8.32;;;1.70;;
60308;SDS011;50313;52.894;6.492;2023-07-13T07:20:42;6.43;;;1.58;;
60308;SDS011;50313;52.894;6.492;2023-07-13T07:26:59;3.30;;;1.45;;
60308;SDS011;50313;52.894;6.492;2023-07-13T07:29:50;3.22;;;1.60;;
60308;SDS011;50313;52.894;6.492;2023-07-13T07:35:29;6.22;;;1.60;;
60308;SDS011;50313;52.894;6.492;2023-07-13T07:38:15;13.85;;;2.53;;
60308;SDS011;50313;52.894;6.492;2023-07-13T07:40:49;4.18;;;1.60;;
60308;SDS011;50313;52.894;6.492;2023-07-13T07:43:15;6.25;;;1.90;;
60308;SDS011;50313;52.894;6.492;2023-07-13T07:45:40;6.07;;;1.65;;
60308;SDS011;50313;52.894;6.492;2023-07-13T07:48:09;6.65;;;1.88;;
60308;SDS011;50313;52.894;6.492;2023-07-13T07:50:55;11.77;;;1.98;;
60308;SDS011;50313;52.894;6.492;2023-07-13T07:53:32;8.15;;;2.67;;
60308;SDS011;50313;52.894;6.492;2023-07-13T07:56:03;9.27;;;1.58;;
60308;SDS011;50313;52.894;6.492;2023-07-13T07:58:31;6.80;;;2.00;;
60308;SDS011;50313;52.894;6.492;2023-07-13T08:01:30;4.65;;;1.92;;
60308;SDS011;50313;52.894;6.492;2023-07-13T08:03:49;3.75;;;1.75;;
60308;SDS011;50313;52.894;6.492;2023-07-13T08:06:15;6.65;;;1.67;;
60308;SDS011;50313;52.894;6.492;2023-07-13T08:08:45;6.88;;;1.80;;
60308;SDS011;50313;52.894;6.492;2023-07-13T08:11:14;4.32;;;1.90;;
60308;SDS011;50313;52.894;6.492;2023-07-13T08:13:41;8.35;;;1.90;;
60308;SDS011;50313;52.894;6.492;2023-07-13T08:16:10;7.57;;;1.98;;
60308;SDS011;50313;52.894;6.492;2023-07-13T08:18:36;5.28;;;2.03;;
60308;SDS011;50313;52.894;6.492;2023-07-13T08:21:05;10.98;;;2.45;;
60308;SDS011;50313;52.894;6.492;2023-07-13T08:23:32;6.22;;;1.98;;
60308;SDS011;50313;52.894;6.492;2023-07-13T08:26:03;5.57;;;2.28;;
60308;SDS011;50313;52.894;6.492;2023-07-13T08:28:34;4.10;;;2.03;;
60308;SDS011;50313;52.894;6.492;2023-07-13T08:31:20;3.95;;;1.67;;
60308;SDS011;50313;52.894;6.492;2023-07-13T08:33:48;5.93;;;1.13;;
60308;SDS011;50313;52.894;6.492;2023-07-13T08:36:17;6.10;;;1.75;;
60308;SDS011;50313;52.894;6.492;2023-07-13T08:38:47;5.93;;;1.35;;
60308;SDS011;50313;52.894;6.492;2023-07-13T08:41:21;5.32;;;1.08;;
60308;SDS011;50313;52.894;6.492;2023-07-13T08:43:57;5.20;;;1.10;;
60308;SDS011;50313;52.894;6.492;2023-07-13T08:46:35;2.28;;;1.40;;
60308;SDS011;50313;52.894;6.492;2023-07-13T08:49:19;4.05;;;1.23;;
60308;SDS011;50313;52.894;6.492;2023-07-13T08:51:52;6.38;;;1.33;;
60308;SDS011;50313;52.894;6.492;2023-07-13T08:54:36;2.30;;;1.13;;
60308;SDS011;50313;52.894;6.492;2023-07-13T08:57:18;6.55;;;1.45;;
60308;SDS011;50313;52.894;6.492;2023-07-13T08:59:46;2.95;;;1.95;;
60308;SDS011;50313;52.894;6.492;2023-07-13T09:05:13;5.15;;;1.90;;
60308;SDS011;50313;52.894;6.492;2023-07-13T09:08:14;2.88;;;1.70;;
60308;SDS011;50313;52.894;6.492;2023-07-13T09:16:36;4.97;;;1.95;;
60308;SDS011;50313;52.894;6.492;2023-07-13T09:19:16;4.22;;;2.08;;
60308;SDS011;50313;52.894;6.492;2023-07-13T09:22:00;3.85;;;2.33;;
60308;SDS011;50313;52.894;6.492;2023-07-13T09:26:58;2.67;;;1.65;;
60308;SDS011;50313;52.894;6.492;2023-07-13T09:29:32;3.25;;;1.20;;
60308;SDS011;50313;52.894;6.492;2023-07-13T09:32:03;1.45;;;1.15;;
60308;SDS011;50313;52.894;6.492;2023-07-13T09:34:34;4.77;;;1.30;;
60308;SDS011;50313;52.894;6.492;2023-07-13T09:37:00;0.77;;;0.75;;
60308;SDS011;50313;52.894;6.492;2023-07-13T09:39:34;2.60;;;0.88;;
60308;SDS011;50313;52.894;6.492;2023-07-13T09:42:14;4.53;;;1.23;;
60308;SDS011;50313;52.894;6.492;2023-07-13T09:44:55;4.13;;;1.00;;
60308;SDS011;50313;52.894;6.492;2023-07-13T09:47:24;3.75;;;1.55;;
60308;SDS011;50313;52.894;6.492;2023-07-13T09:50:01;1.40;;;1.08;;
60308;SDS011;50313;52.894;6.492;2023-07-13T09:52:38;4.72;;;1.23;;
60308;SDS011;50313;52.894;6.492;2023-07-13T09:55:22;2.50;;;1.50;;
60308;SDS011;50313;52.894;6.492;2023-07-13T09:57:48;1.80;;;1.30;;
60308;SDS011;50313;52.894;6.492;2023-07-13T10:00:26;1.83;;;0.93;;
60308;SDS011;50313;52.894;6.492;2023-07-13T10:05:39;0.95;;;0.63;;
60308;SDS011;50313;52.894;6.492;2023-07-13T10:08:16;4.45;;;1.00;;
60308;SDS011;50313;52.894;6.492;2023-07-13T10:11:08;1.92;;;1.30;;
60308;SDS011;50313;52.894;6.492;2023-07-13T10:13:44;3.15;;;1.45;;
60308;SDS011;50313;52.894;6.492;2023-07-13T10:18:51;1.73;;;1.42;;
60308;SDS011;50313;52.894;6.492;2023-07-13T10:21:26;1.75;;;1.20;;
60308;SDS011;50313;52.894;6.492;2023-07-13T10:24:27;3.72;;;1.27;;
60308;SDS011;50313;52.894;6.492;2023-07-13T10:27:05;4.28;;;1.75;;
60308;SDS011;50313;52.894;6.492;2023-07-13T10:29:52;4.65;;;1.90;;
60308;SDS011;50313;52.894;6.492;2023-07-13T10:32:34;2.85;;;1.63;;
60308;SDS011;50313;52.894;6.492;2023-07-13T10:35:03;3.65;;;1.92;;
60308;SDS011;50313;52.894;6.492;2023-07-13T10:37:35;5.05;;;2.40;;
60308;SDS011;50313;52.894;6.492;2023-07-13T10:40:14;2.67;;;1.52;;
60308;SDS011;50313;52.894;6.492;2023-07-13T10:42:45;3.33;;;1.80;;
60308;SDS011;50313;52.894;6.492;2023-07-13T10:45:19;5.93;;;1.92;;
60308;SDS011;50313;52.894;6.492;2023-07-13T10:47:49;3.00;;;1.85;;
60308;SDS011;50313;52.894;6.492;2023-07-13T10:50:25;4.28;;;1.58;;
60308;SDS011;50313;52.894;6.492;2023-07-13T10:53:01;6.68;;;2.08;;
60308;SDS011;50313;52.894;6.492;2023-07-13T10:58:22;5.55;;;1.77;;
60308;SDS011;50313;52.894;6.492;2023-07-13T11:03:55;2.15;;;1.65;;
60308;SDS011;50313;52.894;6.492;2023-07-13T11:11:43;2.05;;;1.00;;
60308;SDS011;50313;52.894;6.492;2023-07-13T11:17:23;3.22;;;0.80;;
60308;SDS011;50313;52.894;6.492;2023-07-13T11:20:04;3.60;;;0.70;;
60308;SDS011;50313;52.894;6.492;2023-07-13T11:25:42;1.73;;;0.95;;
60308;SDS011;50313;52.894;6.492;2023-07-13T11:33:19;3.00;;;1.15;;
60308;SDS011;50313;52.894;6.492;2023-07-13T11:35:57;3.15;;;1.13;;
60308;SDS011;50313;52.894;6.492;2023-07-13T11:38:42;1.52;;;0.68;;
60308;SDS011;50313;52.894;6.492;2023-07-13T11:41:21;3.33;;;1.58;;
60308;SDS011;50313;52.894;6.492;2023-07-13T11:43:54;4.68;;;1.45;;
60308;SDS011;50313;52.894;6.492;2023-07-13T11:46:33;5.70;;;1.38;;
60308;SDS011;50313;52.894;6.492;2023-07-13T11:48:59;1.10;;;0.50;;
60308;SDS011;50313;52.894;6.492;2023-07-13T11:51:33;2.05;;;0.60;;
60308;SDS011;50313;52.894;6.492;2023-07-13T11:54:03;2.92;;;0.70;;
60308;SDS011;50313;52.894;6.492;2023-07-13T11:56:38;2.90;;;0.85;;
60308;SDS011;50313;52.894;6.492;2023-07-13T11:59:07;0.50;;;0.50;;
60308;SDS011;50313;52.894;6.492;2023-07-13T12:01:46;2.08;;;0.60;;
60308;SDS011;50313;52.894;6.492;2023-07-13T12:04:27;5.47;;;0.63;;
60308;SDS011;50313;52.894;6.492;2023-07-13T12:07:03;4.85;;;0.93;;
60308;SDS011;50313;52.894;6.492;2023-07-13T12:09:36;0.80;;;0.52;;
60308;SDS011;50313;52.894;6.492;2023-07-13T12:12:18;3.83;;;0.68;;
60308;SDS011;50313;52.894;6.492;2023-07-13T12:14:44;2.97;;;0.60;;
60308;SDS011;50313;52.894;6.492;2023-07-13T12:17:22;1.75;;;0.65;;
60308;SDS011;50313;52.894;6.492;2023-07-13T12:19:50;2.10;;;0.60;;
60308;SDS011;50313;52.894;6.492;2023-07-13T12:22:18;4.22;;;1.05;;
60308;SDS011;50313;52.894;6.492;2023-07-13T12:24:47;3.95;;;0.60;;
60308;SDS011;50313;52.894;6.492;2023-07-13T12:27:23;1.67;;;0.55;;
60308;SDS011;50313;52.894;6.492;2023-07-13T12:30:29;3.50;;;0.95;;
60308;SDS011;50313;52.894;6.492;2023-07-13T12:33:11;1.53;;;0.50;;
60308;SDS011;50313;52.894;6.492;2023-07-13T12:35:42;1.52;;;0.65;;
60308;SDS011;50313;52.894;6.492;2023-07-13T12:38:35;2.33;;;0.50;;
60308;SDS011;50313;52.894;6.492;2023-07-13T12:41:19;1.20;;;0.70;;
60308;SDS011;50313;52.894;6.492;2023-07-13T12:43:49;1.15;;;0.50;;
60308;SDS011;50313;52.894;6.492;2023-07-13T12:46:38;1.67;;;0.70;;
60308;SDS011;50313;52.894;6.492;2023-07-13T12:49:30;0.60;;;0.60;;
60308;SDS011;50313;52.894;6.492;2023-07-13T12:52:27;1.38;;;0.55;;
60308;SDS011;50313;52.894;6.492;2023-07-13T12:55:09;1.10;;;0.55;;
60308;SDS011;50313;52.894;6.492;2023-07-13T12:58:04;1.40;;;0.63;;
60308;SDS011;50313;52.894;6.492;2023-07-13T13:03:33;2.47;;;0.98;;
60308;SDS011;50313;52.894;6.492;2023-07-13T13:12:29;2.25;;;0.60;;
60308;SDS011;50313;52.894;6.492;2023-07-13T13:15:45;1.63;;;0.52;;
60308;SDS011;50313;52.894;6.492;2023-07-13T13:18:48;5.00;;;1.00;;
60308;SDS011;50313;52.894;6.492;2023-07-13T13:21:35;3.47;;;0.70;;
60308;SDS011;50313;52.894;6.492;2023-07-13T13:24:19;0.95;;;0.52;;
60308;SDS011;50313;52.894;6.492;2023-07-13T13:30:09;3.00;;;1.10;;
60308;SDS011;50313;52.894;6.492;2023-07-13T13:33:00;4.00;;;0.60;;
60308;SDS011;50313;52.894;6.492;2023-07-13T13:35:38;0.80;;;0.52;;
60308;SDS011;50313;52.894;6.492;2023-07-13T13:38:17;0.68;;;0.60;;
60308;SDS011;50313;52.894;6.492;2023-07-13T13:40:53;1.00;;;0.55;;
60308;SDS011;50313;52.894;6.492;2023-07-13T13:44:00;3.17;;;0.80;;
60308;SDS011;50313;52.894;6.492;2023-07-13T13:46:37;1.30;;;0.50;;
60308;SDS011;50313;52.894;6.492;2023-07-13T13:49:24;1.30;;;0.68;;
60308;SDS011;50313;52.894;6.492;2023-07-13T13:52:04;2.67;;;0.50;;
60308;SDS011;50313;52.894;6.492;2023-07-13T13:54:33;0.85;;;0.40;;
60308;SDS011;50313;52.894;6.492;2023-07-13T13:57:26;2.17;;;0.50;;
60308;SDS011;50313;52.894;6.492;2023-07-13T14:00:28;2.67;;;0.77;;
60308;SDS011;50313;52.894;6.492;2023-07-13T14:06:20;1.27;;;0.30;;
60308;SDS011;50313;52.894;6.492;2023-07-13T14:08:56;0.80;;;0.55;;
60308;SDS011;50313;52.894;6.492;2023-07-13T14:11:34;2.08;;;0.55;;
60308;SDS011;50313;52.894;6.492;2023-07-13T14:14:34;4.10;;;0.63;;
60308;SDS011;50313;52.894;6.492;2023-07-13T14:17:40;1.85;;;0.70;;
60308;SDS011;50313;52.894;6.492;2023-07-13T14:23:48;1.50;;;0.57;;
60308;SDS011;50313;52.894;6.492;2023-07-13T14:26:40;0.82;;;0.40;;
60308;SDS011;50313;52.894;6.492;2023-07-13T14:29:41;0.93;;;0.40;;
60308;SDS011;50313;52.894;6.492;2023-07-13T14:32:25;5.22;;;1.02;;
60308;SDS011;50313;52.894;6.492;2023-07-13T14:34:59;2.33;;;0.95;;
60308;SDS011;50313;52.894;6.492;2023-07-13T14:40:33;2.13;;;0.57;;
60308;SDS011;50313;52.894;6.492;2023-07-13T14:43:08;3.42;;;0.57;;
60308;SDS011;50313;52.894;6.492;2023-07-13T14:48:59;4.07;;;1.10;;
60308;SDS011;50313;52.894;6.492;2023-07-13T14:51:34;1.67;;;0.75;;
60308;SDS011;50313;52.894;6.492;2023-07-13T14:54:25;4.22;;;0.55;;
60308;SDS011;50313;52.894;6.492;2023-07-13T14:57:15;5.55;;;0.90;;
60308;SDS011;50313;52.894;6.492;2023-07-13T15:02:58;5.20;;;1.15;;
60308;SDS011;50313;52.894;6.492;2023-07-13T15:13:51;3.85;;;0.70;;
60308;SDS011;50313;52.894;6.492;2023-07-13T15:16:20;2.05;;;0.73;;
60308;SDS011;50313;52.894;6.492;2023-07-13T15:26:45;6.07;;;0.95;;
60308;SDS011;50313;52.894;6.492;2023-07-13T15:29:54;1.05;;;0.70;;
60308;SDS011;50313;52.894;6.492;2023-07-13T15:33:16;4.57;;;0.60;;
60308;SDS011;50313;52.894;6.492;2023-07-13T15:36:34;4.93;;;0.80;;
60308;SDS011;50313;52.894;6.492;2023-07-13T15:47:53;3.95;;;1.02;;
60308;SDS011;50313;52.894;6.492;2023-07-13T15:53:59;1.67;;;0.93;;
60308;SDS011;50313;52.894;6.492;2023-07-13T16:23:14;4.53;;;1.10;;
60308;SDS011;50313;52.894;6.492;2023-07-13T16:26:08;7.80;;;3.42;;
60308;SDS011;50313;52.894;6.492;2023-07-13T16:51:38;2.88;;;0.70;;
60308;SDS011;50313;52.894;6.492;2023-07-13T16:54:44;4.57;;;0.73;;
60308;SDS011;50313;52.894;6.492;2023-07-13T16:57:48;1.48;;;0.63;;
60308;SDS011;50313;52.894;6.492;2023-07-13T17:04:14;2.40;;;0.77;;
60308;SDS011;50313;52.894;6.492;2023-07-13T17:07:19;1.33;;;0.80;;
60308;SDS011;50313;52.894;6.492;2023-07-13T17:09:54;4.53;;;1.02;;
60308;SDS011;50313;52.894;6.492;2023-07-13T17:23:53;3.58;;;0.70;;
60308;SDS011;50313;52.894;6.492;2023-07-13T17:33:45;1.20;;;0.70;;
60308;SDS011;50313;52.894;6.492;2023-07-13T17:36:47;4.85;;;1.35;;
60308;SDS011;50313;52.894;6.492;2023-07-13T17:42:35;1.98;;;0.77;;
60308;SDS011;50313;52.894;6.492;2023-07-13T17:45:09;1.52;;;0.80;;
60308;SDS011;50313;52.894;6.492;2023-07-13T17:47:54;1.10;;;0.60;;
60308;SDS011;50313;52.894;6.492;2023-07-13T17:50:37;3.38;;;0.63;;
60308;SDS011;50313;52.894;6.492;2023-07-13T17:53:32;3.53;;;0.65;;
60308;SDS011;50313;52.894;6.492;2023-07-13T18:00:09;1.02;;;0.70;;
60308;SDS011;50313;52.894;6.492;2023-07-13T18:03:10;3.50;;;1.17;;
60308;SDS011;50313;52.894;6.492;2023-07-13T18:16:24;5.35;;;0.88;;
60308;SDS011;50313;52.894;6.492;2023-07-13T18:22:23;2.22;;;0.90;;
60308;SDS011;50313;52.894;6.492;2023-07-13T18:24:54;4.28;;;1.05;;
60308;SDS011;50313;52.894;6.492;2023-07-13T18:27:34;4.63;;;1.23;;
60308;SDS011;50313;52.894;6.492;2023-07-13T18:34:11;1.52;;;0.85;;
60308;SDS011;50313;52.894;6.492;2023-07-13T18:41:09;4.85;;;0.93;;
60308;SDS011;50313;52.894;6.492;2023-07-13T18:54:23;1.83;;;0.90;;
60308;SDS011;50313;52.894;6.492;2023-07-13T19:04:14;4.65;;;1.20;;
60308;SDS011;50313;52.894;6.492;2023-07-13T19:25:03;2.28;;;0.80;;
60308;SDS011;50313;52.894;6.492;2023-07-13T19:31:47;2.55;;;1.25;;
60308;SDS011;50313;52.894;6.492;2023-07-13T19:52:42;2.88;;;1.30;;
60308;SDS011;50313;52.894;6.492;2023-07-13T20:46:30;2.67;;;1.73;;
60308;SDS011;50313;52.894;6.492;2023-07-13T20:53:13;9.60;;;2.17;;
60308;SDS011;50313;52.894;6.492;2023-07-13T21:14:57;3.88;;;2.40;;
60308;SDS011;50313;52.894;6.492;2023-07-13T21:18:30;4.00;;;2.42;;
60308;SDS011;50313;52.894;6.492;2023-07-13T21:21:45;2.97;;;1.90;;
60308;SDS011;50313;52.894;6.492;2023-07-13T21:59:00;2.97;;;2.15;;
60308;SDS011;50313;52.894;6.492;2023-07-13T22:02:17;6.50;;;2.40;;
60308;SDS011;50313;52.894;6.492;2023-07-13T22:08:54;3.83;;;2.22;;
60308;SDS011;50313;52.894;6.492;2023-07-13T22:12:41;4.88;;;2.20;;
60308;SDS011;50313;52.894;6.492;2023-07-13T22:15:12;2.38;;;2.17;;
60308;SDS011;50313;52.894;6.492;2023-07-13T22:32:59;4.53;;;2.65;;
60308;SDS011;50313;52.894;6.492;2023-07-13T22:35:55;6.95;;;2.70;;
60308;SDS011;50313;52.894;6.492;2023-07-13T22:38:56;6.30;;;3.15;;
60308;SDS011;50313;52.894;6.492;2023-07-13T22:42:11;8.27;;;2.78;;
60308;SDS011;50313;52.894;6.492;2023-07-13T22:45:07;4.32;;;2.35;;
60308;SDS011;50313;52.894;6.492;2023-07-13T22:58:10;6.55;;;3.08;;
60308;SDS011;50313;52.894;6.492;2023-07-13T23:04:56;10.15;;;3.15;;
60308;SDS011;50313;52.894;6.492;2023-07-13T23:14:49;6.18;;;3.63;;
60308;SDS011;50313;52.894;6.492;2023-07-13T23:39:17;4.18;;;2.95;;
60308;SDS011;50313;52.894;6.492;2023-07-13T23:46:40;2.90;;;2.17;;
60308;SDS011;50313;52.894;6.492;2023-07-13T23:49:58;5.20;;;2.50;;
60308;SDS011;50313;52.894;6.492;2023-07-13T23:59:52;5.22;;;3.10;;
